• Join FlightAware (Why Join?)
  • Login
  • US Flag 
Gobble Gobble! 
04:17PM EST


 

Airport Tracker/Info


-or-


 

Live Flight TrackerFlight Track Log ✈ N143DE ✈ 21-Aug-2013 ✈ KPDK - KTRI

Flight Track Log - Related Links

Times and Time Zones

All times are in EDT time to prevent confusion due to time zone crossing. See the N143DE flight status page for this flight to view local times or setup timezone preferences in your user account.

Time Position Orientation Groundspeed Altitude Reporting Facility
EDT Latitude Longitude Course Direction KTS MPH feet Rate Location/Type
10:40AM 33.8667 -84.3333 North 176 203 2,700  Level Atlanta TRACON
10:41AM 33.9167 -84.3667 331° Northwest 200 230 4,100 1,500 Climbing Atlanta TRACON
10:42AM 33.9667 -84.3500 15° North 201 231 5,600 1,560 Climbing Atlanta TRACON
10:43AM 34.0167 -84.3500 360° North 209 241 7,100 1,200 Climbing Atlanta TRACON
10:44AM 34.0833 -84.3500 360° North 224 258 8,000 900 Climbing Atlanta TRACON
10:45AM 34.1500 -84.3333 12° North 227 261 9,000 900 Climbing Atlanta TRACON
10:46AM 34.1752 -84.3000 North  Level FlightAware Approximate
10:47AM 34.2197 -84.3253 North 246 283 10,200  Level Atlanta Center
10:48AM 34.2822 -84.3178 North 235 270 10,900 600 Climbing Atlanta Center
10:49AM 34.3553 -84.3056 North 235 270 11,400 1,080 Climbing Atlanta Center
10:50AM 34.4158 -84.2956 North 235 270 13,100 1,620 Climbing Atlanta Center
10:51AM 34.4681 -84.2856 North 212 244 14,700 1,440 Climbing Atlanta Center
10:52AM 34.5244 -84.2758 North 200 230 16,000 1,380 Climbing Atlanta Center
10:53AM 34.5664 -84.2406 35° Northeast 187 215 17,500 1,140 Climbing Atlanta Center
10:54AM 34.6103 -84.2053 33° Northeast 182 209 18,300 720 Climbing Atlanta Center
10:55AM 34.6561 -84.1650 36° Northeast 187 215 19,000 360 Climbing Atlanta Center
10:56AM 34.7022 -84.1247 36° Northeast 199 229 19,100  Climbing Atlanta Center
10:57AM 34.7583 -84.0767 35° Northeast 226 260 19,100  Level Atlanta Center
10:58AM 34.8147 -84.0311 34° Northeast 239 275 19,100 -60 Level Atlanta Center
10:59AM 34.8733 -83.9781 37° Northeast 245 282 19,000 -60 Descending Atlanta Center
11:00AM 34.9294 -83.9297 35° Northeast 245 282 19,000  Level Atlanta Center
11:01AM 34.9836 -83.8792 37° Northeast 245 282 19,000  Level Atlanta Center
11:02AM 35.0400 -83.8181 42° Northeast 251 289 19,000  Level Atlanta Center
11:03AM 35.0983 -83.7594 39° Northeast 256 295 19,000  Level Atlanta Center
11:04AM 35.1567 -83.7008 39° Northeast 261 300 19,000  Level Atlanta Center
11:05AM 35.2147 -83.6422 40° Northeast 266 306 19,000 -360 Level Atlanta Center
11:06AM 35.2750 -83.5808 40° Northeast 266 306 18,300 -660 Descending Atlanta Center
11:07AM 35.3353 -83.5169 41° Northeast 277 319 17,700 -660 Descending Atlanta Center
11:08AM 35.3978 -83.4553 39° Northeast 277 319 17,000 -360 Descending Atlanta Center
11:09AM 35.4558 -83.3989 38° Northeast 277 319 17,000  Level Atlanta Center
11:10AM 35.5078 -83.3447 40° Northeast 270 311 17,000  Level Atlanta Center
11:11AM 35.5636 -83.2883 39° Northeast 258 297 17,000  Level Atlanta Center
11:12AM 35.6156 -83.2342 40° Northeast 252 290 17,000  Level Atlanta Center
11:13AM 35.6733 -83.1694 42° Northeast 252 290 17,100 -240 Climbing Atlanta Center
11:14AM 35.7272 -83.1153 39° Northeast 247 284 16,600 -720 Descending Atlanta Center
11:15AM 35.7831 -83.0583 40° Northeast 256 295 15,700 -840 Descending Atlanta Center
11:16AM 35.8347 -82.9886 48° Northeast 256 295 15,000 -840 Descending Atlanta Center
11:17AM 35.8842 -82.9161 50° Northeast 261 300 14,100 -900 Descending Atlanta Center
11:18AM 35.9336 -82.8489 48° Northeast 266 306 13,200 -840 Descending Atlanta Center
11:19AM 35.9831 -82.7814 48° Northeast 266 306 12,500 -780 Descending Atlanta Center
11:20AM 36.0303 -82.7114 50° Northeast 266 306 11,700 -1,080 Descending Atlanta Center
11:21AM 36.0794 -82.6411 49° Northeast 268 308 10,400 -1,260 Descending Atlanta Center
11:22AM 36.1308 -82.5708 48° Northeast 268 308 9,200 -1,260 Descending Atlanta Center
11:23AM 36.1886 -82.5208 35° Northeast 257 296 7,900 -1,140 Descending Atlanta Center
11:24AM 36.2528 -82.4811 27° Northeast 251 289 7,000 -480 Descending Atlanta Center
11:25AM 36.3106 -82.4414 29° Northeast 236 272 7,000 -420 Level Atlanta Center
11:26AM 36.3622 -82.4067 28° Northeast 223 257 6,200 -840 Descending Atlanta Center
11:28AM 36.4752 -82.4074 48° Northeast  Level Estimated
11:35AM 36.4752 -82.4074 270° West  Level Estimated
11:36AM 36.4752 -82.4074 270° West  Level Estimated
11:37AM 36.4752 -82.4074 270° West  Level Estimated
11:38AM 36.4752 -82.4074 270° West  Level Estimated
11:39AM 36.4752 -82.4074 270° West  Level Estimated